CPX213 Details

Departure: Chicago/Rockford International Airport (KRFD) at 0630 UTC
Arrival: Theodore Francis Green State Airport (KPVD) at 0800 UTC
Route: QUOTE JOT J146 GIJ J554 JHW TRAAD HNK WIPOR3
Notes:


Current Weather Information
KRFD 171754Z 09007KT 10SM FEW030 BKN140 BKN250 25/19 A2988 RMK AO2 SLP115 60008 T02500189 10261 20172 58014
KPVD 171751Z 18005KT 10SM BKN013 BKN025 OVC250 24/22 A3006 RMK AO2 LTG DSNT SW SLP178 T02440217 10256 20217 58003